Time;durP1;ratioP1;P1;durP2;ratioP2;P2;SDS_P1;SDS_P2;PMS_P1;PMS_P2;Temp;Humidity;BMP_temperature;BMP_pressure;BME280_temperature;BME280_humidity;BME280_pressure;Samples;Min_cycle;Max_cycle;Signal;HPM_P1;HPM_P2
2021/10/10 00:02:21;;;;;;;6.05;5.10;;;3.40;99.90;;;;;;6151001;23;20400;-82
2021/10/10 00:05:06;;;;;;;6.90;4.97;;;3.60;99.90;;;;;;6148972;23;20376;-82
2021/10/10 00:07:51;;;;;;;5.85;5.22;;;3.50;99.90;;;;;;6176577;23;20425;-84
2021/10/10 00:13:50;;;;;;;5.67;4.93;;;3.40;99.90;;;;;;6151976;23;20412;31
2021/10/10 00:22:39;;;;;;;6.15;5.13;;;3.30;99.90;;;;;;6215138;22;20614;-88
2021/10/10 00:25:58;;;;;;;5.63;5.05;;;3.20;99.90;;;;;;6203308;23;20362;-88
2021/10/10 00:38:08;;;;;;;6.43;5.75;;;3.10;99.90;;;;;;6187787;22;20421;-89
2021/10/10 00:41:01;;;;;;;7.85;6.45;;;3.20;99.90;;;;;;6181780;23;20396;-83
2021/10/10 00:47:21;;;;;;;9.10;5.45;;;3.00;99.90;;;;;;6203945;22;20430;-89
2021/10/10 00:50:42;;;;;;;8.63;6.60;;;2.90;99.90;;;;;;6201510;22;20372;-84
2021/10/10 01:15:05;;;;;;;5.85;5.25;;;2.80;99.90;;;;;;6178258;22;20433;-87
2021/10/10 02:54:38;;;;;;;11.55;7.22;;;2.10;99.90;;;;;;6235779;22;20441;-89
2021/10/10 02:57:31;;;;;;;8.10;7.30;;;2.10;99.90;;;;;;6229466;22;20386;-89
2021/10/10 03:00:17;;;;;;;9.48;8.10;;;2.10;99.90;;;;;;6208321;22;20355;-89
2021/10/10 03:03:04;;;;;;;11.48;7.82;;;2.10;99.90;;;;;;6231973;22;20413;-89
2021/10/10 03:08:53;;;;;;;9.15;7.65;;;2.00;99.90;;;;;;6268715;22;20381;-87
2021/10/10 03:11:41;;;;;;;10.75;7.72;;;1.90;99.90;;;;;;6182505;22;20430;-88
2021/10/10 03:14:27;;;;;;;8.13;6.85;;;1.90;99.90;;;;;;6188082;22;20365;-86
2021/10/10 03:17:17;;;;;;;9.33;7.77;;;2.00;99.90;;;;;;6200187;22;20400;-91
2021/10/10 03:20:04;;;;;;;11.63;8.18;;;2.00;99.90;;;;;;6209205;22;20360;-86
2021/10/10 03:22:50;;;;;;;9.25;7.55;;;1.90;99.90;;;;;;6222400;22;20364;-89
2021/10/10 03:25:36;;;;;;;9.65;7.78;;;2.10;99.90;;;;;;6221770;22;20379;-90
2021/10/10 03:28:21;;;;;;;9.38;7.05;;;1.90;99.90;;;;;;6260217;22;20361;-89
2021/10/10 03:31:09;;;;;;;9.20;7.20;;;1.90;99.90;;;;;;6181435;22;20368;-86
2021/10/10 03:33:56;;;;;;;9.40;7.35;;;1.90;99.90;;;;;;6238027;22;20854;-88
2021/10/10 03:36:42;;;;;;;9.02;7.13;;;1.90;99.90;;;;;;6219728;22;20384;-83
2021/10/10 03:39:29;;;;;;;7.70;6.25;;;1.90;99.90;;;;;;6187369;22;20369;-82
2021/10/10 03:42:16;;;;;;;8.57;6.03;;;2.00;99.90;;;;;;6250773;22;20369;-83
2021/10/10 03:45:04;;;;;;;9.13;7.13;;;1.90;99.90;;;;;;6205819;22;20388;-81
2021/10/10 03:47:58;;;;;;;10.00;7.32;;;1.90;99.90;;;;;;6207122;22;20367;-85
2021/10/10 03:50:45;;;;;;;8.17;6.57;;;2.00;99.90;;;;;;6197906;23;20791;-88
2021/10/10 03:53:49;;;;;;;10.13;6.55;;;1.90;99.90;;;;;;6148776;22;20393;-85
2021/10/10 03:56:37;;;;;;;9.33;7.43;;;1.90;99.90;;;;;;6200678;22;20760;-83
2021/10/10 03:59:25;;;;;;;9.80;6.53;;;1.80;99.90;;;;;;6238018;22;20415;-83
2021/10/10 04:02:19;;;;;;;7.60;6.47;;;1.80;99.90;;;;;;6241843;22;20884;-89
2021/10/10 04:05:37;;;;;;;6.85;6.15;;;1.80;99.90;;;;;;6197984;22;20370;-83
2021/10/10 04:08:24;;;;;;;8.00;6.32;;;1.80;99.90;;;;;;6193139;23;20390;-83
2021/10/10 04:11:25;;;;;;;6.87;6.17;;;1.70;99.90;;;;;;6157474;23;20381;-83
2021/10/10 04:14:12;;;;;;;7.57;6.40;;;1.60;99.90;;;;;;6233918;22;20373;-85
2021/10/10 04:17:01;;;;;;;6.88;5.80;;;1.70;99.90;;;;;;6182928;23;20382;-83
2021/10/10 04:19:51;;;;;;;11.57;6.72;;;1.50;99.90;;;;;;6214020;22;20373;-84
2021/10/10 04:22:40;;;;;;;8.75;6.10;;;1.60;99.90;;;;;;6217866;23;20372;-86
2021/10/10 04:25:27;;;;;;;8.07;6.55;;;1.60;99.90;;;;;;6207786;23;20386;-88
2021/10/10 04:28:18;;;;;;;7.47;6.73;;;1.50;99.90;;;;;;6175567;23;20370;-85
2021/10/10 04:31:11;;;;;;;9.82;7.22;;;1.40;99.90;;;;;;6166540;23;20457;-84
2021/10/10 04:34:00;;;;;;;9.48;7.00;;;1.30;99.90;;;;;;6169381;23;20691;-83
2021/10/10 04:36:48;;;;;;;7.28;5.88;;;1.30;99.90;;;;;;6207169;22;20372;-81
2021/10/10 04:39:33;;;;;;;8.63;6.40;;;1.30;99.90;;;;;;6211858;23;20362;-82
2021/10/10 04:42:18;;;;;;;7.63;6.57;;;1.20;99.90;;;;;;6172887;23;20410;-82
2021/10/10 04:45:03;;;;;;;10.60;7.55;;;1.20;99.90;;;;;;6212382;23;20382;-82
2021/10/10 04:47:47;;;;;;;7.75;6.95;;;1.20;99.90;;;;;;6190611;23;20378;-83
2021/10/10 04:50:32;;;;;;;10.13;7.28;;;1.20;99.90;;;;;;6215123;23;20382;-81
2021/10/10 04:53:16;;;;;;;10.27;7.22;;;1.10;99.90;;;;;;6190494;23;20371;-83
2021/10/10 04:56:01;;;;;;;9.55;7.60;;;1.10;99.90;;;;;;6211778;23;20855;-81
2021/10/10 04:58:46;;;;;;;9.25;7.18;;;1.10;99.90;;;;;;6169447;23;20378;-85
2021/10/10 05:01:31;;;;;;;8.20;6.82;;;1.10;99.90;;;;;;6149064;23;20883;-83
2021/10/10 05:04:16;;;;;;;9.43;7.03;;;1.10;99.90;;;;;;6190822;23;20743;-80
2021/10/10 05:07:01;;;;;;;10.52;7.45;;;1.00;99.90;;;;;;6203844;22;20370;-83
2021/10/10 05:09:45;;;;;;;8.48;6.97;;;1.00;99.90;;;;;;6250839;22;20367;-81
2021/10/10 05:12:31;;;;;;;8.55;7.07;;;1.00;99.90;;;;;;6229531;22;20877;-86
2021/10/10 05:15:15;;;;;;;10.57;8.00;;;1.00;99.90;;;;;;6230150;22;20459;-81
2021/10/10 05:18:00;;;;;;;11.00;7.18;;;0.90;99.90;;;;;;6230113;22;20402;-82
2021/10/10 05:20:44;;;;;;;10.00;6.90;;;0.90;99.90;;;;;;6251665;22;20926;-82
2021/10/10 05:23:28;;;;;;;8.90;7.50;;;0.90;99.90;;;;;;6216439;22;20378;-83
2021/10/10 05:26:13;;;;;;;7.57;6.60;;;0.80;99.90;;;;;;6236206;22;20697;-82
2021/10/10 05:28:57;;;;;;;8.82;7.28;;;0.80;99.90;;;;;;6276942;22;20375;-81
2021/10/10 05:31:42;;;;;;;8.65;7.53;;;0.80;99.90;;;;;;6255648;22;20447;-82
2021/10/10 05:34:26;;;;;;;10.23;7.55;;;0.80;99.90;;;;;;6208859;22;20372;-81
2021/10/10 05:37:10;;;;;;;8.07;6.90;;;0.80;99.90;;;;;;6189217;22;20371;-82
2021/10/10 05:39:55;;;;;;;8.70;7.80;;;0.80;99.90;;;;;;6231230;22;20368;-82
2021/10/10 05:42:39;;;;;;;10.00;7.63;;;0.80;99.90;;;;;;6229241;22;20387;-81
2021/10/10 05:45:24;;;;;;;10.63;7.80;;;0.80;99.90;;;;;;6207733;22;20376;-82
2021/10/10 05:48:08;;;;;;;12.90;9.47;;;0.80;99.90;;;;;;6207110;22;20680;-81
2021/10/10 05:50:52;;;;;;;9.23;7.60;;;0.80;99.90;;;;;;6209526;22;20380;-81
2021/10/10 05:53:38;;;;;;;9.00;7.05;;;0.80;99.90;;;;;;6207607;22;20391;-84
2021/10/10 05:56:23;;;;;;;9.77;7.80;;;0.90;99.90;;;;;;6229221;22;20477;-83
2021/10/10 05:59:09;;;;;;;9.10;8.03;;;0.90;99.90;;;;;;6208222;22;20421;-81
2021/10/10 06:01:53;;;;;;;9.02;7.75;;;1.10;99.90;;;;;;6211030;22;20374;-81
2021/10/10 06:04:39;;;;;;;11.40;8.07;;;0.90;99.90;;;;;;6211637;22;20470;-82
2021/10/10 06:07:23;;;;;;;8.13;7.00;;;0.90;99.90;;;;;;6211474;22;20399;-82
2021/10/10 06:10:09;;;;;;;9.48;8.38;;;1.00;99.90;;;;;;6212629;22;20359;-84
2021/10/10 06:12:53;;;;;;;8.30;7.50;;;1.10;99.90;;;;;;6231586;22;20368;-82
2021/10/10 06:15:38;;;;;;;10.55;8.27;;;1.10;99.90;;;;;;6209861;22;20367;-82
2021/10/10 06:18:22;;;;;;;12.02;8.35;;;1.10;99.90;;;;;;6211086;22;20755;-82
2021/10/10 06:21:07;;;;;;;10.23;8.48;;;1.20;99.90;;;;;;6189613;22;20437;-82
2021/10/10 06:23:53;;;;;;;10.45;8.70;;;1.20;99.90;;;;;;6234910;22;20947;-84
2021/10/10 06:26:40;;;;;;;9.48;7.75;;;1.50;99.90;;;;;;6257866;22;20367;-81
2021/10/10 06:29:25;;;;;;;9.60;7.85;;;1.30;99.90;;;;;;6256650;22;20360;-83
2021/10/10 06:32:10;;;;;;;9.63;8.23;;;1.40;99.90;;;;;;6212242;22;20455;-83
2021/10/10 06:34:57;;;;;;;11.32;7.80;;;1.40;99.90;;;;;;6255811;22;20394;-81
2021/10/10 06:37:43;;;;;;;8.90;8.00;;;1.50;99.90;;;;;;6194652;22;20901;-83
2021/10/10 06:40:33;;;;;;;10.45;8.77;;;1.60;99.90;;;;;;6153619;22;20471;-83
2021/10/10 06:43:24;;;;;;;11.98;9.18;;;1.60;99.90;;;;;;6232348;22;20392;-83
2021/10/10 06:46:15;;;;;;;14.00;10.10;;;1.70;99.90;;;;;;6236135;22;20367;-82
2021/10/10 06:49:04;;;;;;;10.05;7.45;;;1.70;99.90;;;;;;6275074;22;21095;-82
2021/10/10 06:51:52;;;;;;;10.70;8.00;;;1.70;99.90;;;;;;6225991;22;20509;-82
2021/10/10 06:54:37;;;;;;;10.60;8.05;;;1.90;99.90;;;;;;6247661;22;20379;-82
2021/10/10 06:57:30;;;;;;;14.95;10.85;;;2.10;99.90;;;;;;6219672;22;20374;-82
2021/10/10 07:00:18;;;;;;;13.10;9.13;;;2.00;99.90;;;;;;6155763;22;20375;-82
2021/10/10 07:03:08;;;;;;;13.25;9.02;;;2.20;99.90;;;;;;6194083;22;20370;-81
2021/10/10 07:06:01;;;;;;;12.95;7.95;;;2.20;99.90;;;;;;6183871;23;20372;-81
2021/10/10 07:09:00;;;;;;;10.32;8.23;;;2.30;99.90;;;;;;6126584;22;20382;-81
2021/10/10 07:12:10;;;;;;;13.40;9.40;;;2.30;99.90;;;;;;6186633;22;20442;-81
2021/10/10 07:15:32;;;;;;;12.90;9.10;;;2.50;99.90;;;;;;6155245;22;20956;-81
2021/10/10 07:18:52;;;;;;;11.40;8.98;;;2.60;99.90;;;;;;6207582;22;20905;-81
2021/10/10 07:22:43;;;;;;;11.83;10.27;;;2.50;99.90;;;;;;6193310;22;20371;-82
2021/10/10 07:25:58;;;;;;;13.10;9.57;;;2.90;99.90;;;;;;6165587;22;20381;-80
2021/10/10 07:33:48;;;;;;;11.20;8.37;;;3.00;99.90;;;;;;6117066;23;20489;-82
2021/10/10 07:38:24;;;;;;;12.68;8.82;;;3.30;99.90;;;;;;6188995;23;20384;-80
2021/10/10 08:59:25;;;;;;;9.18;7.53;;;6.90;99.90;;;;;;6220100;23;20890;-83
2021/10/10 09:02:19;;;;;;;10.95;7.60;;;7.00;99.90;;;;;;6185753;23;20689;-81
2021/10/10 09:05:10;;;;;;;10.83;7.73;;;7.10;99.90;;;;;;6171207;23;20369;-82
2021/10/10 09:07:56;;;;;;;11.00;7.95;;;7.30;99.90;;;;;;6177186;23;20683;-81
2021/10/10 09:10:41;;;;;;;8.38;6.88;;;7.40;99.90;;;;;;6158959;23;20715;-81
2021/10/10 09:15:06;;;;;;;12.25;8.68;;;7.60;99.90;;;;;;5081352;27;20530;-81
2021/10/10 09:17:57;;;;;;;9.57;8.02;;;7.70;99.90;;;;;;5066864;28;20818;-81
2021/10/10 09:20:43;;;;;;;10.73;7.93;;;7.90;99.90;;;;;;5036212;28;20426;-83
2021/10/10 09:23:30;;;;;;;10.77;7.37;;;8.00;99.90;;;;;;5063248;28;20389;-82
2021/10/10 09:26:14;;;;;;;8.93;7.28;;;8.10;99.90;;;;;;5053064;28;20444;-80
2021/10/10 09:28:59;;;;;;;9.45;7.20;;;8.20;99.90;;;;;;5045304;28;20232;-80
2021/10/10 09:31:44;;;;;;;10.43;7.18;;;8.40;99.90;;;;;;5045798;28;20206;-80
2021/10/10 09:34:28;;;;;;;11.43;4.80;;;8.50;99.90;;;;;;5065309;28;20717;-80
2021/10/10 09:37:28;;;;;;;8.82;6.75;;;8.70;99.90;;;;;;5013908;28;771458;-81
2021/10/10 09:59:27;;;;;;;9.38;7.00;;;9.50;99.90;;;;;;5060969;28;20232;-84
2021/10/10 10:02:11;;;;;;;5.95;5.45;;;9.60;99.90;;;;;;5018567;28;20226;-81
2021/10/10 10:04:55;;;;;;;8.33;6.80;;;9.70;99.90;;;;;;5021079;28;20944;-81
2021/10/10 10:07:40;;;;;;;7.47;5.70;;;9.80;99.90;;;;;;4999946;28;20469;-82
2021/10/10 10:10:27;;;;;;;7.93;6.45;;;9.90;99.90;;;;;;5019140;28;20409;-80
2021/10/10 10:13:11;;;;;;;6.32;5.47;;;10.10;99.90;;;;;;5023509;28;20409;-83
2021/10/10 10:15:55;;;;;;;6.00;5.40;;;10.20;99.90;;;;;;5018037;28;20418;-82
2021/10/10 10:18:40;;;;;;;;;;;10.40;99.90;;;;;;5012794;28;20044;-80
2021/10/10 10:21:25;;;;;;;;;;;10.50;99.90;;;;;;5042813;28;20080;-80
2021/10/10 10:24:10;;;;;;;;;;;10.70;99.90;;;;;;5048111;28;19963;-81
2021/10/10 10:26:55;;;;;;;5.28;4.78;;;10.80;99.90;;;;;;5052385;28;20214;-83
2021/10/10 10:29:41;;;;;;;5.38;4.53;;;11.00;99.90;;;;;;5023092;28;20425;-86
2021/10/10 10:32:29;;;;;;;8.25;5.10;;;11.20;99.90;;;;;;5031171;28;20661;-84
2021/10/10 10:35:18;;;;;;;5.87;4.40;;;11.40;99.90;;;;;;5034849;28;20431;-79
2021/10/10 10:38:03;;;;;;;6.50;5.50;;;11.60;99.90;;;;;;5002830;28;20454;-82
2021/10/10 10:40:47;;;;;;;4.95;4.50;;;11.80;99.90;;;;;;4988905;28;20213;-83
2021/10/10 10:43:35;;;;;;;6.35;4.93;;;12.00;99.90;;;;;;5009164;28;20348;-80
2021/10/10 10:46:19;;;;;;;6.88;5.03;;;12.20;99.90;;;;;;5012580;28;20392;-83
2021/10/10 10:49:04;;;;;;;4.85;4.30;;;12.50;99.90;;;;;;5012711;28;20407;-81
2021/10/10 10:52:22;;;;;;;5.43;4.30;;;12.60;99.90;;;;;;4983309;28;20411;-80
2021/10/10 10:55:17;;;;;;;5.63;4.47;;;13.00;99.90;;;;;;4986374;28;20265;-84
2021/10/10 10:58:17;;;;;;;4.80;4.30;;;13.40;99.90;;;;;;5018767;28;20234;-84
2021/10/10 11:01:05;;;;;;;5.82;4.95;;;13.80;99.90;;;;;;4990751;28;20221;-84
2021/10/10 11:03:49;;;;;;;8.75;5.30;;;14.10;99.90;;;;;;4992733;28;20316;-80
2021/10/10 11:06:33;;;;;;;5.97;5.15;;;14.20;99.90;;;;;;4995438;28;20222;-81
2021/10/10 11:09:18;;;;;;;4.95;4.45;;;14.50;99.90;;;;;;4978767;28;20250;-81
2021/10/10 11:12:02;;;;;;;6.28;4.65;;;14.60;99.90;;;;;;4970826;28;20272;-80
2021/10/10 11:15:01;;;;;;;5.22;4.72;;;14.70;99.90;;;;;;4984619;28;20265;-81
2021/10/10 11:17:53;;;;;;;5.85;4.95;;;15.00;99.90;;;;;;4984149;28;20473;-82
2021/10/10 11:20:46;;;;;;;9.10;4.65;;;15.20;99.90;;;;;;4985794;28;20269;-79
2021/10/10 11:23:31;;;;;;;6.78;4.60;;;15.50;99.90;;;;;;4969328;28;20265;-80
2021/10/10 11:26:16;;;;;;;5.35;4.70;;;15.80;99.90;;;;;;4993364;28;20637;-82
2021/10/10 11:29:07;;;;;;;5.65;4.82;;;15.90;99.90;;;;;;4998430;28;20241;-81
2021/10/10 11:31:53;;;;;;;6.28;5.20;;;16.00;99.90;;;;;;5009633;28;20693;-79
2021/10/10 11:34:37;;;;;;;5.78;4.88;;;16.10;99.50;;;;;;4985598;28;20298;-81
2021/10/10 11:37:21;;;;;;;11.82;4.25;;;16.40;99.30;;;;;;4995667;28;20214;-80
2021/10/10 11:40:09;;;;;;;6.32;4.05;;;16.80;97.50;;;;;;4982241;28;20349;-80
2021/10/10 11:42:55;;;;;;;7.65;4.70;;;17.00;96.50;;;;;;4986670;28;20229;-81
2021/10/10 11:45:40;;;;;;;4.45;4.05;;;17.10;97.00;;;;;;4985433;28;20293;-81
2021/10/10 11:48:35;;;;;;;4.10;3.75;;;17.40;95.10;;;;;;5002021;28;20221;-82
2021/10/10 11:51:27;;;;;;;4.45;3.90;;;17.60;94.30;;;;;;5004051;28;20234;-82
2021/10/10 11:54:18;;;;;;;6.15;3.95;;;17.90;94.30;;;;;;4982585;28;21229;-80
2021/10/10 11:57:02;;;;;;;4.38;3.97;;;18.10;92.10;;;;;;4996031;28;20415;-83
2021/10/10 11:59:48;;;;;;;4.60;4.13;;;18.10;91.60;;;;;;4979192;28;20411;-81
2021/10/10 12:02:34;;;;;;;5.13;3.80;;;18.00;90.40;;;;;;4994077;28;20427;-83
2021/10/10 12:05:23;;;;;;;6.97;4.40;;;17.80;90.30;;;;;;4993289;28;20544;-83
2021/10/10 12:08:17;;;;;;;4.63;3.27;;;17.80;90.10;;;;;;4981648;28;20413;-83
2021/10/10 12:11:08;;;;;;;4.05;3.72;;;17.80;91.20;;;;;;4993216;28;20443;-85
2021/10/10 12:13:54;;;;;;;3.50;3.20;;;17.80;90.80;;;;;;4995758;28;20404;-83
2021/10/10 12:16:42;;;;;;;4.30;3.63;;;17.70;87.60;;;;;;5010331;28;20399;-82
2021/10/10 12:19:26;;;;;;;4.80;3.63;;;17.60;86.90;;;;;;4993543;28;20455;-83
2021/10/10 12:22:16;;;;;;;4.10;3.47;;;17.20;88.70;;;;;;4995348;28;20875;-82
2021/10/10 12:25:00;;;;;;;3.95;3.47;;;16.90;88.30;;;;;;4991350;28;20407;-85
2021/10/10 12:27:56;;;;;;;5.50;3.38;;;16.60;85.90;;;;;;5008102;28;20436;-84
2021/10/10 12:30:58;;;;;;;3.55;2.53;;;16.30;87.10;;;;;;4987968;28;20414;-88
2021/10/10 12:33:43;;;;;;;3.20;3.00;;;16.20;87.90;;;;;;4989327;28;20444;-83
2021/10/10 12:36:27;;;;;;;4.05;3.50;;;16.10;86.50;;;;;;4988967;28;20477;-83
2021/10/10 12:39:12;;;;;;;3.97;3.25;;;15.90;84.80;;;;;;4997217;28;20469;-81
2021/10/10 12:41:56;;;;;;;3.30;2.90;;;15.80;84.50;;;;;;4978033;28;20414;-81
2021/10/10 12:44:40;;;;;;;4.45;3.40;;;15.70;85.50;;;;;;4989362;28;20398;-83
2021/10/10 12:47:28;;;;;;;3.42;3.13;;;15.50;83.30;;;;;;4986312;28;20405;-82
2021/10/10 12:50:12;;;;;;;3.67;2.83;;;15.40;83.20;;;;;;5001313;28;20402;-82
2021/10/10 12:52:56;;;;;;;3.33;2.92;;;15.10;84.10;;;;;;4986240;28;20942;-83
2021/10/10 12:55:40;;;;;;;14.73;10.25;;;15.00;83.60;;;;;;4983559;28;20414;-84
2021/10/10 12:58:25;;;;;;;4.05;3.28;;;14.70;81.70;;;;;;4987265;28;20437;-84
2021/10/10 13:01:09;;;;;;;4.87;2.93;;;14.60;81.50;;;;;;4993852;28;20428;-85
2021/10/10 13:03:54;;;;;;;2.78;2.53;;;14.50;84.10;;;;;;5002058;28;20388;-79
2021/10/10 13:06:41;;;;;;;2.55;2.35;;;14.50;85.30;;;;;;4999111;28;20447;-82
2021/10/10 13:09:28;;;;;;;3.17;2.60;;;14.50;85.80;;;;;;4992752;28;20453;-83
2021/10/10 13:12:12;;;;;;;2.92;2.65;;;14.60;85.60;;;;;;4999742;28;20393;-82
2021/10/10 13:14:57;;;;;;;3.22;2.65;;;14.60;84.70;;;;;;5001718;28;20395;-88
2021/10/10 13:17:41;;;;;;;3.33;3.03;;;14.40;85.50;;;;;;4990181;28;20400;-86
2021/10/10 13:20:25;;;;;;;3.38;2.88;;;14.30;82.10;;;;;;5003633;28;20474;-83
2021/10/10 13:23:10;;;;;;;2.88;2.50;;;14.20;83.80;;;;;;4986329;28;20441;-84
2021/10/10 13:25:54;;;;;;;4.27;2.90;;;14.10;84.80;;;;;;5005182;28;20455;-82
2021/10/10 13:28:38;;;;;;;2.63;2.42;;;14.00;83.80;;;;;;4953034;28;20435;-84
2021/10/10 13:31:23;;;;;;;2.97;2.78;;;13.90;85.00;;;;;;4959108;28;20466;-82
2021/10/10 13:34:08;;;;;;;2.40;2.20;;;13.90;86.00;;;;;;4985520;28;20429;-82
2021/10/10 13:36:52;;;;;;;3.53;3.03;;;13.90;85.30;;;;;;4999717;28;20409;-85
2021/10/10 13:39:37;;;;;;;5.17;2.80;;;13.70;83.90;;;;;;4977865;28;20405;-84
2021/10/10 13:42:22;;;;;;;3.03;2.73;;;13.90;82.80;;;;;;4992120;28;20417;-88
2021/10/10 13:45:07;;;;;;;2.80;2.30;;;13.80;85.60;;;;;;5012129;28;20404;-87
2021/10/10 13:47:52;;;;;;;7.97;6.43;;;13.80;86.70;;;;;;5006631;28;21068;-87
2021/10/10 13:50:36;;;;;;;3.17;2.87;;;13.70;85.20;;;;;;4989379;28;20404;-90
2021/10/10 13:53:21;;;;;;;4.35;2.67;;;13.70;85.90;;;;;;4998571;28;20400;-88
2021/10/10 13:56:05;;;;;;;3.10;2.70;;;13.60;86.60;;;;;;5014440;28;20411;-88
2021/10/10 13:58:49;;;;;;;3.40;2.65;;;13.60;87.80;;;;;;5005033;28;20392;-84
2021/10/10 14:01:34;;;;;;;2.30;2.10;;;13.60;87.80;;;;;;5003991;28;20411;-90
2021/10/10 14:04:18;;;;;;;5.22;2.70;;;13.60;88.00;;;;;;5001288;28;20641;-88
2021/10/10 14:07:04;;;;;;;2.80;2.60;;;13.50;87.10;;;;;;5021647;28;20404;-88
2021/10/10 14:09:49;;;;;;;2.85;2.60;;;13.50;86.60;;;;;;5016348;28;20448;-86
2021/10/10 14:12:33;;;;;;;2.88;2.55;;;13.40;87.60;;;;;;5012843;28;20472;-87
2021/10/10 14:15:18;;;;;;;3.72;2.78;;;13.40;86.90;;;;;;4995907;28;20434;-84
2021/10/10 14:18:02;;;;;;;2.80;2.33;;;13.40;87.10;;;;;;5003942;28;20403;-88
2021/10/10 14:20:48;;;;;;;2.50;2.30;;;13.40;88.60;;;;;;5005458;28;20444;-86
2021/10/10 14:23:32;;;;;;;3.33;3.03;;;13.40;90.00;;;;;;5010670;28;20400;-84
2021/10/10 14:26:16;;;;;;;3.08;2.72;;;13.40;88.90;;;;;;5023326;28;20404;-81
2021/10/10 14:29:01;;;;;;;4.45;3.08;;;13.30;88.20;;;;;;5028885;28;20423;-90
2021/10/10 14:37:38;;;;;;;3.53;3.03;;;13.10;90.00;;;;;;2853766;23;20411;-89
2021/10/10 14:40:24;;;;;;;3.15;2.75;;;13.00;89.90;;;;;;5095176;23;20428;-89
2021/10/10 14:43:11;;;;;;;3.00;2.63;;;12.90;90.10;;;;;;5142222;23;20411;-90
2021/10/10 14:46:00;;;;;;;3.73;3.27;;;13.00;90.30;;;;;;5027438;28;20441;-87
2021/10/10 14:48:45;;;;;;;5.70;3.35;;;12.90;90.10;;;;;;5041470;28;20419;-88
2021/10/10 14:51:29;;;;;;;3.25;2.95;;;12.80;90.00;;;;;;5054095;28;20533;-88
2021/10/10 14:54:16;;;;;;;4.80;3.08;;;12.80;90.30;;;;;;5035329;28;20573;-82
2021/10/10 14:57:05;;;;;;;4.43;2.85;;;12.90;90.20;;;;;;5056780;28;20467;-86
2021/10/10 14:59:49;;;;;;;3.78;3.25;;;12.80;90.70;;;;;;5069284;28;20429;-82
2021/10/10 15:02:34;;;;;;;2.65;2.45;;;12.80;90.40;;;;;;5064545;28;20413;-86
2021/10/10 15:05:19;;;;;;;2.92;2.65;;;12.90;91.20;;;;;;5069564;28;20414;-85
2021/10/10 15:08:04;;;;;;;3.28;2.08;;;12.90;91.00;;;;;;5066064;28;20412;-90
2021/10/10 15:10:49;;;;;;;2.60;2.30;;;12.90;92.00;;;;;;5064050;28;20434;-88
2021/10/10 15:13:33;;;;;;;2.97;2.40;;;12.90;92.10;;;;;;5024767;28;20429;-84
2021/10/10 15:16:18;;;;;;;3.33;2.97;;;12.90;92.00;;;;;;5050065;28;20437;-86
2021/10/10 15:19:02;;;;;;;2.33;2.10;;;12.80;91.20;;;;;;5045962;28;20414;-88
2021/10/10 15:21:47;;;;;;;3.50;2.80;;;12.80;91.70;;;;;;5043863;28;20410;-84
2021/10/10 15:24:32;;;;;;;10.00;7.60;;;12.80;91.30;;;;;;5027762;28;20511;-85
2021/10/10 15:27:16;;;;;;;7.32;3.90;;;12.70;91.30;;;;;;5047411;28;20427;-84
2021/10/10 15:30:01;;;;;;;5.00;3.60;;;12.70;92.60;;;;;;5036753;28;20400;-87
2021/10/10 15:32:45;;;;;;;3.10;2.80;;;12.70;92.10;;;;;;5032227;28;20501;-88
2021/10/10 15:35:29;;;;;;;3.28;2.95;;;12.60;92.30;;;;;;5040102;28;20453;-89
2021/10/10 15:38:14;;;;;;;3.33;2.88;;;12.60;92.40;;;;;;5032964;28;20410;-89
2021/10/10 15:41:00;;;;;;;2.70;2.50;;;12.50;92.70;;;;;;5039428;28;20392;-87
2021/10/10 15:43:49;;;;;;;3.70;3.17;;;12.50;93.00;;;;;;5053797;28;20402;-87
2021/10/10 15:46:34;;;;;;;3.08;2.80;;;12.40;93.30;;;;;;5043941;28;20396;-87
2021/10/10 15:49:18;;;;;;;3.40;3.10;;;12.40;93.40;;;;;;5061368;28;20397;-86
2021/10/10 15:52:02;;;;;;;4.10;3.60;;;12.40;93.40;;;;;;5052331;28;20400;-85
2021/10/10 15:54:47;;;;;;;3.67;3.20;;;12.40;92.00;;;;;;5051867;28;20418;-85
2021/10/10 15:57:31;;;;;;;3.53;3.20;;;12.30;92.50;;;;;;5041949;28;20418;-91
2021/10/10 16:00:15;;;;;;;3.77;2.90;;;12.10;92.50;;;;;;5036078;28;20410;-82
2021/10/10 16:02:59;;;;;;;4.80;4.30;;;12.00;93.00;;;;;;5040038;28;20402;-82
2021/10/10 16:05:50;;;;;;;4.18;3.78;;;11.90;92.00;;;;;;5045481;28;20455;-82
2021/10/10 16:08:36;;;;;;;4.22;2.97;;;11.70;93.50;;;;;;5036631;28;20434;-83
2021/10/10 16:11:23;;;;;;;4.65;3.53;;;11.50;93.50;;;;;;5038460;28;20467;-83
2021/10/10 16:14:08;;;;;;;4.40;4.00;;;11.40;93.90;;;;;;4987858;28;20406;-82
2021/10/10 16:16:53;;;;;;;4.30;3.90;;;11.30;94.60;;;;;;5003480;28;20426;-81
2021/10/10 16:19:40;;;;;;;4.40;3.90;;;11.20;95.30;;;;;;5038428;28;20430;-84
2021/10/10 16:22:28;;;;;;;6.43;5.63;;;11.10;95.20;;;;;;5041849;28;20452;-81
2021/10/10 16:25:13;;;;;;;6.43;5.40;;;11.00;95.20;;;;;;5014942;28;20453;-82
2021/10/10 16:28:01;;;;;;;11.15;7.60;;;11.00;96.20;;;;;;4986493;28;21162;-82
2021/10/10 16:30:46;;;;;;;9.40;5.70;;;10.90;96.10;;;;;;5021121;28;20459;-80
2021/10/10 16:33:35;;;;;;;8.10;5.27;;;10.80;96.70;;;;;;5027701;28;20573;-84
2021/10/10 16:36:28;;;;;;;6.27;5.10;;;10.80;96.80;;;;;;5019615;28;20485;-82
2021/10/10 16:39:14;;;;;;;5.30;4.80;;;10.70;97.70;;;;;;5018381;28;20442;-81
2021/10/10 16:42:02;;;;;;;4.57;4.03;;;10.60;97.90;;;;;;5026642;28;20983;-81
2021/10/10 16:44:47;;;;;;;4.60;3.83;;;10.40;98.90;;;;;;4997668;28;20394;-83
2021/10/10 16:47:31;;;;;;;4.72;4.07;;;10.30;99.00;;;;;;5026448;28;20422;-87
2021/10/10 16:50:16;;;;;;;7.20;3.83;;;10.10;99.80;;;;;;5038908;28;20852;-81
2021/10/10 16:53:00;;;;;;;5.53;4.07;;;10.00;99.90;;;;;;5016992;28;20420;-83
2021/10/10 16:55:45;;;;;;;4.90;3.70;;;9.90;99.90;;;;;;5037480;28;20763;-80
2021/10/10 16:58:29;;;;;;;6.70;3.75;;;9.80;99.90;;;;;;5017946;28;20450;-80
2021/10/10 17:01:14;;;;;;;4.57;3.92;;;9.70;99.90;;;;;;5027784;28;20461;-83
2021/10/10 17:03:59;;;;;;;5.27;4.17;;;9.60;99.90;;;;;;5012621;28;20441;-82
2021/10/10 17:06:44;;;;;;;4.28;3.72;;;9.40;99.90;;;;;;5034527;28;20398;-80
2021/10/10 17:09:28;;;;;;;5.55;4.07;;;9.30;99.90;;;;;;5009511;28;20593;-81
2021/10/10 17:12:16;;;;;;;5.20;3.97;;;9.30;99.90;;;;;;5027809;28;20446;-80
2021/10/10 17:15:03;;;;;;;7.32;4.07;;;9.20;99.90;;;;;;4995345;28;20402;-80
2021/10/10 17:17:47;;;;;;;7.50;5.63;;;9.10;99.90;;;;;;5021216;28;20441;-80
2021/10/10 17:20:34;;;;;;;6.25;5.22;;;9.10;99.90;;;;;;4998802;28;20411;-80
2021/10/10 17:23:20;;;;;;;6.82;4.47;;;9.00;99.90;;;;;;5031129;28;20533;-81
2021/10/10 17:26:05;;;;;;;6.55;4.22;;;9.00;99.90;;;;;;5019738;28;20434;-79
2021/10/10 17:28:49;;;;;;;5.47;4.03;;;9.00;99.90;;;;;;5016671;28;20402;-80
2021/10/10 17:31:35;;;;;;;4.35;3.95;;;8.90;99.90;;;;;;5034967;28;20496;-80
2021/10/10 17:34:19;;;;;;;6.47;4.22;;;8.90;99.90;;;;;;5039271;28;20406;-81
2021/10/10 17:37:03;;;;;;;4.60;3.90;;;8.80;99.90;;;;;;5006551;28;20469;-81
2021/10/10 17:39:48;;;;;;;4.03;3.53;;;8.80;99.90;;;;;;5037953;28;20414;-82
2021/10/10 17:42:32;;;;;;;6.28;4.10;;;8.80;99.90;;;;;;5005172;28;20806;-80
2021/10/10 17:45:16;;;;;;;4.45;4.05;;;8.70;99.90;;;;;;5019418;28;21466;-81
2021/10/10 17:48:01;;;;;;;4.35;3.60;;;8.60;99.90;;;;;;5022609;28;20406;-81
2021/10/10 17:50:45;;;;;;;3.95;3.47;;;8.70;99.90;;;;;;5040212;28;20469;-79
2021/10/10 17:53:30;;;;;;;4.25;3.63;;;8.60;99.90;;;;;;4999467;28;20491;-80
2021/10/10 17:56:16;;;;;;;5.22;3.63;;;8.60;99.90;;;;;;5004286;28;20398;-79
2021/10/10 18:10:59;;;;;;;4.63;4.10;;;8.20;99.90;;;;;;5022538;28;20462;-79
2021/10/10 18:13:43;;;;;;;3.92;3.58;;;8.10;99.90;;;;;;5033492;28;20762;-79
2021/10/10 18:16:28;;;;;;;3.43;3.13;;;8.00;99.90;;;;;;5025547;28;20403;-79
2021/10/10 18:19:12;;;;;;;3.90;3.40;;;7.90;99.90;;;;;;5029146;28;20436;-79
2021/10/10 18:21:57;;;;;;;3.83;3.40;;;7.90;99.90;;;;;;5037911;28;20420;-79
2021/10/10 18:24:41;;;;;;;4.00;3.65;;;7.70;99.90;;;;;;5019705;28;20460;-79
2021/10/10 18:27:25;;;;;;;3.15;2.85;;;7.70;99.90;;;;;;5018904;28;20400;-79
2021/10/10 18:30:10;;;;;;;3.73;3.00;;;7.60;99.90;;;;;;5027383;28;20487;-78
2021/10/10 18:32:55;;;;;;;5.45;3.20;;;7.50;99.90;;;;;;5028647;28;20681;-79
2021/10/10 18:35:40;;;;;;;3.87;3.30;;;7.50;99.90;;;;;;5027950;28;20426;-79
2021/10/10 18:38:24;;;;;;;3.30;3.00;;;7.40;99.90;;;;;;5018325;28;20453;-79
2021/10/10 18:41:08;;;;;;;4.43;3.58;;;7.30;99.90;;;;;;5026488;28;20475;-78
2021/10/10 18:43:52;;;;;;;5.60;4.63;;;7.20;99.90;;;;;;5030573;28;20453;-77
2021/10/10 18:46:37;;;;;;;4.47;3.72;;;7.10;99.90;;;;;;5003929;28;20994;-78
2021/10/10 18:49:21;;;;;;;4.75;3.67;;;7.00;99.90;;;;;;5017175;28;21077;-78
2021/10/10 18:52:09;;;;;;;3.72;3.42;;;6.80;99.90;;;;;;5024747;28;20403;-79
2021/10/10 18:54:53;;;;;;;4.23;3.83;;;6.80;99.90;;;;;;5031459;28;20491;-79
2021/10/10 18:57:38;;;;;;;4.43;3.45;;;6.60;99.90;;;;;;5029948;28;20406;-79
2021/10/10 19:00:22;;;;;;;3.58;3.28;;;6.70;99.90;;;;;;5022479;28;20629;-79
2021/10/10 19:03:06;;;;;;;4.57;3.33;;;6.60;99.90;;;;;;5022611;28;21010;-79